Time;durP1;ratioP1;P1;durP2;ratioP2;P2;SDS_P1;SDS_P2;PMS_P1;PMS_P2;Temp;Humidity;BMP_temperature;BMP_pressure;BME280_temperature;BME280_humidity;BME280_pressure;Samples;Min_cycle;Max_cycle;Signal;HPM_P1;HPM_P2
2022/01/15 00:00:43;;;;;;;80.50;28.00;;;;;;;;;;5112663;28;20228;-80
2022/01/15 00:03:11;;;;;;;72.07;27.53;;;;;;;;;;5093715;28;20236;-81
2022/01/15 00:05:39;;;;;;;75.20;26.87;;;;;;;;;;5093590;28;20202;-80
2022/01/15 00:08:06;;;;;;;77.57;29.47;;;;;;;;;;5094635;28;20277;-80
2022/01/15 00:10:34;;;;;;;74.10;28.70;;;;;;;;;;5093621;28;20286;-81
2022/01/15 00:13:02;;;;;;;73.73;27.90;;;;;;;;;;5094473;28;20718;-80
2022/01/15 00:15:34;;;;;;;86.23;28.37;;;;;;;;;;5093776;28;20325;-80
2022/01/15 00:18:06;;;;;;;76.70;29.50;;;;;;;;;;5093673;28;20198;-80
2022/01/15 00:20:33;;;;;;;73.07;28.57;;;;;;;;;;5098152;28;20214;-80
2022/01/15 00:23:01;;;;;;;73.93;28.70;;;;;;;;;;5104050;28;20293;-80
2022/01/15 00:25:29;;;;;;;73.00;28.90;;;;;;;;;;5093793;28;20286;-80
2022/01/15 00:27:56;;;;;;;69.77;27.60;;;;;;;;;;5094368;28;20230;-80
2022/01/15 00:30:23;;;;;;;73.83;28.27;;;;;;;;;;5109330;28;20296;-80
2022/01/15 00:32:52;;;;;;;114.13;28.90;;;;;;;;;;5104983;28;20635;-80
2022/01/15 00:35:20;;;;;;;73.83;29.47;;;;;;;;;;5093723;28;20222;-80
2022/01/15 00:37:48;;;;;;;84.73;29.10;;;;;;;;;;5093146;28;20297;-80
2022/01/15 00:40:16;;;;;;;71.30;27.90;;;;;;;;;;5093706;28;20290;-80
2022/01/15 00:42:44;;;;;;;89.13;26.57;;;;;;;;;;5093712;28;20285;-80
2022/01/15 00:45:16;;;;;;;83.70;28.23;;;;;;;;;;5092938;28;20278;-81
2022/01/15 00:47:43;;;;;;;77.53;27.37;;;;;;;;;;5092690;28;20201;-80
2022/01/15 00:50:12;;;;;;;129.77;28.93;;;;;;;;;;5093963;28;20233;-80
2022/01/15 00:52:41;;;;;;;81.60;27.80;;;;;;;;;;5093223;28;20298;-80
2022/01/15 00:55:10;;;;;;;77.73;28.47;;;;;;;;;;5092964;28;20210;-80
2022/01/15 00:57:37;;;;;;;80.93;28.43;;;;;;;;;;5093593;28;20730;-80
2022/01/15 01:00:05;;;;;;;78.90;28.60;;;;;;;;;;5092964;28;20237;-80
2022/01/15 01:02:32;;;;;;;81.37;27.77;;;;;;;;;;5093344;28;20724;-80
2022/01/15 01:04:59;;;;;;;77.13;28.00;;;;;;;;;;5093211;28;20674;-80
2022/01/15 01:07:28;;;;;;;87.23;28.83;;;;;;;;;;5103403;28;20199;-80
2022/01/15 01:10:05;;;;;;;74.93;28.03;;;;;;;;;;5092316;28;20225;-80
2022/01/15 01:12:56;;;;;;;70.20;26.97;;;;;;;;;;5093777;28;20202;-80
2022/01/15 01:21:02;;;;;;;63.83;25.50;;;;;;;;;;5113614;28;20287;-80
2022/01/15 01:23:30;;;;;;;59.33;25.30;;;;;;;;;;5095127;28;20265;-80
2022/01/15 01:26:04;;;;;;;70.13;24.47;;;;;;;;;;5092627;28;20669;-81
2022/01/15 01:28:35;;;;;;;77.77;25.87;;;;;;;;;;5083771;28;20249;-80
2022/01/15 01:31:10;;;;;;;86.50;27.07;;;;;;;;;;5092884;28;20348;-80
2022/01/15 01:33:41;;;;;;;86.90;25.33;;;;;;;;;;5092629;28;20209;-79
2022/01/15 01:36:17;;;;;;;75.33;26.67;;;;;;;;;;5072484;28;20308;-80
2022/01/15 01:38:51;;;;;;;78.70;26.73;;;;;;;;;;5075066;28;20213;-80
2022/01/15 01:41:20;;;;;;;72.87;27.80;;;;;;;;;;5092340;28;20200;-80
2022/01/15 01:43:52;;;;;;;73.10;26.27;;;;;;;;;;5092716;28;20610;-79
2022/01/15 01:46:32;;;;;;;69.83;25.50;;;;;;;;;;5091939;28;20202;-79
2022/01/15 01:49:01;;;;;;;89.30;26.70;;;;;;;;;;5093021;28;20235;-80
2022/01/15 01:51:31;;;;;;;78.97;26.73;;;;;;;;;;5092400;28;20668;-80
2022/01/15 01:54:01;;;;;;;75.47;26.23;;;;;;;;;;5093803;28;20259;-79
2022/01/15 01:56:29;;;;;;;73.63;26.27;;;;;;;;;;5112055;28;20852;-79
2022/01/15 01:58:56;;;;;;;94.17;26.57;;;;;;;;;;5110688;28;20280;-80
2022/01/15 02:01:23;;;;;;;81.00;27.20;;;;;;;;;;5101625;28;20198;-79
2022/01/15 02:03:51;;;;;;;78.30;27.97;;;;;;;;;;5092145;28;20288;-80
2022/01/15 02:06:18;;;;;;;70.87;25.57;;;;;;;;;;5092101;28;20229;-79
2022/01/15 02:08:46;;;;;;;77.13;26.50;;;;;;;;;;5092459;28;20194;-80
2022/01/15 02:11:14;;;;;;;72.40;28.10;;;;;;;;;;5091506;28;20236;-80
2022/01/15 02:13:43;;;;;;;68.07;25.60;;;;;;;;;;5091803;28;20286;-79
2022/01/15 02:16:11;;;;;;;78.13;26.83;;;;;;;;;;5092070;28;20308;-79
2022/01/15 02:18:38;;;;;;;73.70;25.80;;;;;;;;;;5093110;28;20230;-79
2022/01/15 02:23:53;;;;;;;75.23;25.87;;;;;;;;;;5099930;28;20750;-79
2022/01/15 02:26:23;;;;;;;67.90;26.37;;;;;;;;;;5111945;28;20280;-80
2022/01/15 02:28:53;;;;;;;77.47;27.30;;;;;;;;;;5091541;28;20198;-80
2022/01/15 02:31:21;;;;;;;75.93;26.20;;;;;;;;;;5091967;28;20202;-80
2022/01/15 02:33:49;;;;;;;144.27;28.13;;;;;;;;;;5091860;28;20651;-79
2022/01/15 02:36:19;;;;;;;78.13;26.73;;;;;;;;;;5091562;28;20652;-80
2022/01/15 02:38:47;;;;;;;68.53;26.33;;;;;;;;;;5092237;28;20194;-80
2022/01/15 02:41:14;;;;;;;95.97;29.53;;;;;;;;;;5091198;28;20202;-80
2022/01/15 02:43:41;;;;;;;89.33;28.17;;;;;;;;;;5090795;28;20294;-79
2022/01/15 02:46:21;;;;;;;83.27;29.10;;;;;;;;;;5091543;28;20223;-80
2022/01/15 02:48:51;;;;;;;73.47;28.57;;;;;;;;;;5092079;28;20194;-80
2022/01/15 02:51:20;;;;;;;86.93;28.97;;;;;;;;;;5091509;28;20259;-80
2022/01/15 02:53:50;;;;;;;81.97;28.13;;;;;;;;;;5109428;28;20276;-80
2022/01/15 02:56:17;;;;;;;81.73;28.00;;;;;;;;;;5111933;28;20247;-79
2022/01/15 02:58:44;;;;;;;85.80;29.93;;;;;;;;;;5106513;28;20284;-80
2022/01/15 03:01:11;;;;;;;90.93;27.77;;;;;;;;;;5091617;28;20285;-79
2022/01/15 03:03:39;;;;;;;80.87;28.53;;;;;;;;;;5091537;28;20195;-79
2022/01/15 03:06:10;;;;;;;87.87;28.57;;;;;;;;;;5091367;28;20244;-79
2022/01/15 03:08:38;;;;;;;74.63;26.90;;;;;;;;;;5092591;28;20255;-79
2022/01/15 03:11:07;;;;;;;70.20;27.40;;;;;;;;;;5095540;28;20289;-80
2022/01/15 03:13:34;;;;;;;75.87;28.00;;;;;;;;;;5095430;28;20209;-80
2022/01/15 03:16:01;;;;;;;75.17;26.63;;;;;;;;;;5095487;28;20305;-80
2022/01/15 03:18:28;;;;;;;71.87;25.23;;;;;;;;;;5100907;28;20285;-80
2022/01/15 03:20:56;;;;;;;78.37;26.50;;;;;;;;;;5095797;28;20286;-80
2022/01/15 03:23:23;;;;;;;65.90;25.00;;;;;;;;;;5095010;28;20209;-79
2022/01/15 03:25:52;;;;;;;72.63;26.53;;;;;;;;;;5095326;28;20630;-80
2022/01/15 03:28:19;;;;;;;76.40;26.83;;;;;;;;;;5097143;28;20288;-80
2022/01/15 03:30:46;;;;;;;73.50;27.00;;;;;;;;;;5112857;28;20229;-79
2022/01/15 03:33:13;;;;;;;73.67;27.17;;;;;;;;;;5115830;28;20293;-80
2022/01/15 03:35:40;;;;;;;89.00;28.40;;;;;;;;;;5095637;28;20220;-80
2022/01/15 03:38:08;;;;;;;75.57;27.30;;;;;;;;;;5095432;28;20700;-79
2022/01/15 03:40:36;;;;;;;74.07;27.40;;;;;;;;;;5094537;28;20651;-80
2022/01/15 03:43:05;;;;;;;75.17;28.10;;;;;;;;;;5095047;28;20282;-79
2022/01/15 03:45:33;;;;;;;85.50;29.33;;;;;;;;;;5094396;28;20309;-81
2022/01/15 03:48:00;;;;;;;91.33;28.17;;;;;;;;;;5096562;28;20236;-80
2022/01/15 03:50:28;;;;;;;90.60;27.40;;;;;;;;;;5098711;28;20228;-80
2022/01/15 03:52:56;;;;;;;93.23;27.97;;;;;;;;;;5104798;28;20195;-80
2022/01/15 03:55:23;;;;;;;105.27;28.07;;;;;;;;;;5074167;28;20258;-80
2022/01/15 03:57:51;;;;;;;69.60;25.80;;;;;;;;;;5074543;28;20287;-80
2022/01/15 04:00:21;;;;;;;87.10;27.53;;;;;;;;;;5075028;28;20282;-80
2022/01/15 04:02:48;;;;;;;67.67;25.97;;;;;;;;;;5080378;28;20222;-79
2022/01/15 04:05:16;;;;;;;74.57;27.27;;;;;;;;;;5110262;28;20284;-79
2022/01/15 04:07:43;;;;;;;64.47;25.53;;;;;;;;;;5105261;28;20285;-79
2022/01/15 04:10:12;;;;;;;73.30;26.03;;;;;;;;;;5093805;28;20234;-80
2022/01/15 04:12:39;;;;;;;62.43;24.30;;;;;;;;;;5094456;28;20287;-80
2022/01/15 04:15:07;;;;;;;79.40;26.20;;;;;;;;;;5094672;28;20223;-79
2022/01/15 04:17:36;;;;;;;80.33;25.60;;;;;;;;;;5094489;28;20296;-80
2022/01/15 04:20:03;;;;;;;70.23;26.27;;;;;;;;;;5093162;28;20285;-79
2022/01/15 04:22:30;;;;;;;75.57;26.23;;;;;;;;;;5094697;28;20293;-80
2022/01/15 04:24:58;;;;;;;102.43;26.40;;;;;;;;;;5094292;28;20285;-80
2022/01/15 04:27:25;;;;;;;145.47;27.27;;;;;;;;;;5094077;28;20284;-80
2022/01/15 04:29:52;;;;;;;85.13;25.80;;;;;;;;;;5096417;28;20233;-80
2022/01/15 04:32:20;;;;;;;77.50;26.17;;;;;;;;;;5094207;28;20283;-80
2022/01/15 04:34:49;;;;;;;71.53;25.87;;;;;;;;;;5094013;28;20300;-79
2022/01/15 04:37:19;;;;;;;111.17;26.83;;;;;;;;;;5093184;28;20238;-80
2022/01/15 04:39:46;;;;;;;176.80;27.67;;;;;;;;;;5095308;28;20248;-80
2022/01/15 04:42:15;;;;;;;172.77;27.77;;;;;;;;;;5114019;28;20674;-80
2022/01/15 04:44:43;;;;;;;141.77;28.97;;;;;;;;;;5094605;28;20315;-80
2022/01/15 04:47:11;;;;;;;92.13;27.20;;;;;;;;;;5093880;28;20190;-79
2022/01/15 04:49:38;;;;;;;123.50;27.10;;;;;;;;;;5108528;28;20228;-80
2022/01/15 04:52:07;;;;;;;93.63;28.00;;;;;;;;;;5104895;28;20280;-80
2022/01/15 04:54:34;;;;;;;84.53;27.17;;;;;;;;;;5114000;28;20236;-80
2022/01/15 04:57:02;;;;;;;90.07;27.03;;;;;;;;;;5094422;28;20218;-80
2022/01/15 04:59:29;;;;;;;96.50;27.43;;;;;;;;;;5094090;28;20236;-80
2022/01/15 05:01:56;;;;;;;110.27;28.63;;;;;;;;;;5094069;28;20202;-80
2022/01/15 05:04:23;;;;;;;78.27;27.13;;;;;;;;;;5093774;28;20284;-80
2022/01/15 05:06:51;;;;;;;104.13;26.83;;;;;;;;;;5094000;28;20233;-80
2022/01/15 05:09:19;;;;;;;85.67;28.03;;;;;;;;;;5093635;28;20285;-80
2022/01/15 05:11:55;;;;;;;85.17;27.33;;;;;;;;;;5093327;28;20313;-80
2022/01/15 05:14:22;;;;;;;91.30;28.03;;;;;;;;;;5093950;28;20202;-80
2022/01/15 05:16:49;;;;;;;104.90;29.30;;;;;;;;;;5093018;28;20823;-80
2022/01/15 05:19:17;;;;;;;91.63;28.30;;;;;;;;;;5092644;28;20289;-80
2022/01/15 05:21:44;;;;;;;76.90;26.87;;;;;;;;;;5093194;28;20285;-80
2022/01/15 05:24:11;;;;;;;78.30;26.60;;;;;;;;;;5092925;28;20244;-81
2022/01/15 05:26:40;;;;;;;95.87;28.30;;;;;;;;;;5093112;28;20744;-80
2022/01/15 05:29:07;;;;;;;82.13;28.17;;;;;;;;;;5092818;28;20300;-80
2022/01/15 05:31:34;;;;;;;80.10;26.83;;;;;;;;;;5093221;28;20289;-80
2022/01/15 05:34:02;;;;;;;82.23;27.63;;;;;;;;;;5092472;28;20282;-80
2022/01/15 05:36:29;;;;;;;82.33;28.93;;;;;;;;;;5092603;28;20301;-80
2022/01/15 05:38:56;;;;;;;99.13;29.47;;;;;;;;;;5092150;28;20281;-80
2022/01/15 05:41:23;;;;;;;108.43;28.33;;;;;;;;;;5093283;28;20287;-80
2022/01/15 05:43:52;;;;;;;98.30;28.13;;;;;;;;;;5092041;28;20321;-79
2022/01/15 05:46:19;;;;;;;85.80;28.43;;;;;;;;;;5093145;28;20610;-79
2022/01/15 05:48:47;;;;;;;96.47;28.27;;;;;;;;;;5093547;28;20236;-79
2022/01/15 05:51:14;;;;;;;99.17;29.57;;;;;;;;;;5091769;28;20284;-79
2022/01/15 05:53:41;;;;;;;107.83;27.13;;;;;;;;;;5092645;28;20285;-79
2022/01/15 05:56:08;;;;;;;90.67;28.73;;;;;;;;;;5092260;28;20225;-79
2022/01/15 05:58:36;;;;;;;96.77;29.13;;;;;;;;;;5092590;28;20230;-79
2022/01/15 06:01:04;;;;;;;90.93;27.53;;;;;;;;;;5092309;28;20281;-79
2022/01/15 06:03:31;;;;;;;90.13;27.80;;;;;;;;;;5092057;28;20638;-79
2022/01/15 06:06:02;;;;;;;82.50;27.30;;;;;;;;;;5092007;28;20294;-79
2022/01/15 06:08:29;;;;;;;83.40;27.63;;;;;;;;;;5092044;28;20218;-79
2022/01/15 06:10:56;;;;;;;83.43;27.60;;;;;;;;;;5072374;28;20321;-78
2022/01/15 06:13:23;;;;;;;97.77;28.67;;;;;;;;;;5081980;28;20737;-79
2022/01/15 06:15:51;;;;;;;83.50;27.03;;;;;;;;;;5092364;28;20769;-79
2022/01/15 06:18:19;;;;;;;80.10;26.93;;;;;;;;;;5097802;28;20714;-79
2022/01/15 06:20:46;;;;;;;86.37;26.43;;;;;;;;;;5111309;28;20292;-78
2022/01/15 06:23:14;;;;;;;81.20;28.83;;;;;;;;;;5091740;28;20655;-79
2022/01/15 06:25:41;;;;;;;76.80;26.07;;;;;;;;;;5092522;28;20630;-79
2022/01/15 06:28:08;;;;;;;87.20;26.90;;;;;;;;;;5092349;28;20249;-79
2022/01/15 06:30:35;;;;;;;80.30;25.07;;;;;;;;;;5091485;28;20285;-79
2022/01/15 06:33:02;;;;;;;76.70;25.77;;;;;;;;;;5092494;28;20289;-79
2022/01/15 06:35:31;;;;;;;76.13;24.67;;;;;;;;;;5091625;28;20647;-79
2022/01/15 06:37:58;;;;;;;71.47;25.40;;;;;;;;;;5091602;28;20301;-79
2022/01/15 06:40:26;;;;;;;66.13;23.80;;;;;;;;;;5092143;28;20632;-79
2022/01/15 06:42:54;;;;;;;69.77;25.23;;;;;;;;;;5091541;28;20707;-79
2022/01/15 06:45:21;;;;;;;75.53;26.30;;;;;;;;;;5091840;28;20321;-79
2022/01/15 06:47:48;;;;;;;77.43;25.37;;;;;;;;;;5091782;28;20697;-79
2022/01/15 06:50:15;;;;;;;72.73;24.83;;;;;;;;;;5091818;28;20230;-80
2022/01/15 06:52:44;;;;;;;69.37;24.70;;;;;;;;;;5092171;28;20285;-80
2022/01/15 06:55:12;;;;;;;64.57;24.60;;;;;;;;;;5091616;28;20274;-79
2022/01/15 06:57:39;;;;;;;73.47;26.10;;;;;;;;;;5077694;28;20313;-79
2022/01/15 07:00:07;;;;;;;67.53;24.33;;;;;;;;;;5073949;28;20754;-79
2022/01/15 07:02:34;;;;;;;68.77;24.43;;;;;;;;;;5090560;28;20855;-80
2022/01/15 07:05:01;;;;;;;62.33;23.77;;;;;;;;;;5091950;28;20285;-79
2022/01/15 07:07:29;;;;;;;68.90;24.03;;;;;;;;;;5092259;28;20225;-79
2022/01/15 07:09:57;;;;;;;72.80;24.50;;;;;;;;;;5091622;28;20229;-79
2022/01/15 07:12:24;;;;;;;63.30;24.10;;;;;;;;;;5091973;28;20194;-79
2022/01/15 07:14:52;;;;;;;67.13;25.13;;;;;;;;;;5091556;28;20289;-79
2022/01/15 07:17:19;;;;;;;72.00;24.80;;;;;;;;;;5103941;28;20312;-79
2022/01/15 07:19:51;;;;;;;77.53;24.33;;;;;;;;;;5100828;28;20282;-80
2022/01/15 07:22:18;;;;;;;62.50;24.47;;;;;;;;;;5091247;28;20195;-79
2022/01/15 07:24:45;;;;;;;69.03;25.50;;;;;;;;;;5091887;28;20228;-80
2022/01/15 07:27:14;;;;;;;73.20;24.43;;;;;;;;;;5091137;28;20688;-80
2022/01/15 07:29:41;;;;;;;84.23;25.47;;;;;;;;;;5091710;28;20661;-79
2022/01/15 07:32:09;;;;;;;75.50;24.33;;;;;;;;;;5091264;28;20298;-79
2022/01/15 07:34:36;;;;;;;72.10;25.60;;;;;;;;;;5091356;28;20771;-80
2022/01/15 07:37:05;;;;;;;72.37;24.50;;;;;;;;;;5091217;28;20309;-79
2022/01/15 07:39:34;;;;;;;61.30;23.53;;;;;;;;;;5091677;28;20248;-79
2022/01/15 07:42:01;;;;;;;63.30;23.80;;;;;;;;;;5091484;28;20232;-80
2022/01/15 07:44:30;;;;;;;68.17;23.90;;;;;;;;;;5090974;28;20238;-80
2022/01/15 07:46:57;;;;;;;64.73;24.27;;;;;;;;;;5091135;28;20233;-79
2022/01/15 07:49:24;;;;;;;68.00;22.83;;;;;;;;;;5091818;28;20239;-79
2022/01/15 07:51:52;;;;;;;62.80;23.47;;;;;;;;;;5111615;28;20286;-79
2022/01/15 07:54:19;;;;;;;81.00;24.03;;;;;;;;;;5111770;28;20199;-79
2022/01/15 07:56:47;;;;;;;64.67;23.30;;;;;;;;;;5114661;28;20232;-79
2022/01/15 07:59:14;;;;;;;62.30;22.23;;;;;;;;;;5115663;28;20212;-79
2022/01/15 08:01:42;;;;;;;63.27;23.07;;;;;;;;;;5102376;28;20225;-78
2022/01/15 08:04:09;;;;;;;75.53;23.37;;;;;;;;;;5094921;28;20240;-78
2022/01/15 08:06:39;;;;;;;82.37;24.93;;;;;;;;;;5091759;28;20286;-77
2022/01/15 08:09:06;;;;;;;75.60;24.67;;;;;;;;;;5109664;28;20223;-77
2022/01/15 08:11:33;;;;;;;83.73;24.87;;;;;;;;;;5102028;28;20220;-78
2022/01/15 08:14:00;;;;;;;74.07;25.93;;;;;;;;;;5101817;28;20288;-78
2022/01/15 08:16:27;;;;;;;84.17;27.70;;;;;;;;;;5094330;28;20565;-78
2022/01/15 08:18:56;;;;;;;84.70;26.23;;;;;;;;;;5094721;28;20198;-78
2022/01/15 08:21:23;;;;;;;75.17;25.73;;;;;;;;;;5094739;28;20285;-78
2022/01/15 08:23:51;;;;;;;80.60;27.63;;;;;;;;;;5093868;28;20279;-78
2022/01/15 08:26:18;;;;;;;73.90;25.77;;;;;;;;;;5094910;28;20198;-78
2022/01/15 08:28:45;;;;;;;72.30;25.77;;;;;;;;;;5094320;28;20722;-78
2022/01/15 08:31:12;;;;;;;112.03;27.40;;;;;;;;;;5094206;28;20277;-78
2022/01/15 08:33:39;;;;;;;88.33;27.37;;;;;;;;;;5094448;28;20294;-78
2022/01/15 08:36:08;;;;;;;90.27;28.03;;;;;;;;;;5092769;28;20282;-78
2022/01/15 08:38:35;;;;;;;83.33;27.67;;;;;;;;;;5093546;28;20297;-78
2022/01/15 08:41:03;;;;;;;84.10;27.43;;;;;;;;;;5092646;28;20286;-78
2022/01/15 08:43:30;;;;;;;97.77;27.27;;;;;;;;;;5100963;28;20229;-78
2022/01/15 08:45:57;;;;;;;76.47;26.33;;;;;;;;;;5101831;28;21205;-79
2022/01/15 08:48:24;;;;;;;90.33;26.53;;;;;;;;;;5093992;28;20235;-79
2022/01/15 08:50:51;;;;;;;80.43;26.93;;;;;;;;;;5093919;28;20309;-78
2022/01/15 08:53:21;;;;;;;77.57;27.87;;;;;;;;;;5093900;28;20546;-78
2022/01/15 08:55:48;;;;;;;88.57;27.63;;;;;;;;;;5088736;28;20226;-78
2022/01/15 08:58:16;;;;;;;102.30;31.83;;;;;;;;;;5092757;28;20313;-78
2022/01/15 09:00:43;;;;;;;87.70;30.50;;;;;;;;;;5095527;28;20289;-78
2022/01/15 09:03:10;;;;;;;99.13;32.70;;;;;;;;;;5099795;28;20235;-78
2022/01/15 09:05:38;;;;;;;94.00;30.97;;;;;;;;;;5093390;28;20290;-78
2022/01/15 09:08:08;;;;;;;90.03;30.30;;;;;;;;;;5093333;28;20297;-78
2022/01/15 09:10:41;;;;;;;88.17;28.80;;;;;;;;;;5089732;28;20204;-78
2022/01/15 09:13:08;;;;;;;99.97;28.50;;;;;;;;;;5093283;28;20200;-78
2022/01/15 09:15:36;;;;;;;86.70;28.80;;;;;;;;;;5092786;28;20285;-78
2022/01/15 09:18:03;;;;;;;91.00;28.70;;;;;;;;;;5092382;28;20306;-78
2022/01/15 09:20:30;;;;;;;90.10;29.37;;;;;;;;;;5088295;28;20192;-79
2022/01/15 09:22:57;;;;;;;81.67;28.20;;;;;;;;;;5092696;28;20297;-79
2022/01/15 09:25:26;;;;;;;93.43;29.90;;;;;;;;;;5093117;28;20204;-78
2022/01/15 09:30:39;;;;;;;86.30;28.73;;;;;;;;;;5092575;28;20709;-79
2022/01/15 09:33:06;;;;;;;97.70;29.93;;;;;;;;;;5096778;28;20638;-78
2022/01/15 09:35:34;;;;;;;87.67;31.03;;;;;;;;;;5092112;28;20297;-78
2022/01/15 09:38:02;;;;;;;98.00;29.03;;;;;;;;;;5092086;28;20312;-78
2022/01/15 09:40:30;;;;;;;81.30;28.50;;;;;;;;;;5092365;28;20206;-78
2022/01/15 09:42:58;;;;;;;101.50;29.43;;;;;;;;;;5091650;28;20285;-78
2022/01/15 09:45:26;;;;;;;73.80;26.13;;;;;;;;;;5090263;28;20323;-78
2022/01/15 09:47:57;;;;;;;94.30;28.90;;;;;;;;;;5094438;28;20282;-78
2022/01/15 09:50:25;;;;;;;95.33;30.83;;;;;;;;;;5100166;28;20288;-78
2022/01/15 09:52:54;;;;;;;74.90;27.77;;;;;;;;;;5092273;28;20266;-79
2022/01/15 09:55:22;;;;;;;76.17;27.63;;;;;;;;;;5096128;28;20195;-80
2022/01/15 09:57:50;;;;;;;70.10;26.33;;;;;;;;;;5091725;28;20210;-78
2022/01/15 10:00:20;;;;;;;69.33;25.13;;;;;;;;;;5089531;28;20211;-78
2022/01/15 10:02:48;;;;;;;75.87;26.40;;;;;;;;;;5087141;28;20289;-78
2022/01/15 10:05:16;;;;;;;87.87;28.07;;;;;;;;;;5091040;28;20770;-78
2022/01/15 10:07:55;;;;;;;67.77;27.07;;;;;;;;;;5093642;28;20609;-79
2022/01/15 10:10:23;;;;;;;77.37;26.70;;;;;;;;;;5098377;28;20697;-78
2022/01/15 10:12:50;;;;;;;69.67;26.70;;;;;;;;;;5088460;28;20298;-78
2022/01/15 10:15:18;;;;;;;70.80;25.67;;;;;;;;;;5088971;28;20231;-79
2022/01/15 10:17:47;;;;;;;67.00;25.47;;;;;;;;;;5091728;28;20217;-79
2022/01/15 10:20:15;;;;;;;68.37;25.63;;;;;;;;;;5091356;28;20674;-79
2022/01/15 10:22:43;;;;;;;88.40;26.73;;;;;;;;;;5092122;28;20284;-78
2022/01/15 10:25:14;;;;;;;80.63;26.00;;;;;;;;;;5092136;28;20284;-78
2022/01/15 10:27:41;;;;;;;77.00;26.20;;;;;;;;;;5090533;28;20234;-79
2022/01/15 10:30:10;;;;;;;74.10;26.57;;;;;;;;;;5091342;28;20726;-80
2022/01/15 10:32:39;;;;;;;84.60;27.10;;;;;;;;;;5092072;28;20304;-81
2022/01/15 10:35:16;;;;;;;76.37;25.93;;;;;;;;;;5092328;28;20294;-80
2022/01/15 10:37:51;;;;;;;75.97;25.80;;;;;;;;;;5092252;28;20305;-81
2022/01/15 10:40:19;;;;;;;88.23;33.23;;;;;;;;;;5100816;28;20575;-81
2022/01/15 10:42:53;;;;;;;146.73;62.93;;;;;;;;;;5101508;28;20210;-80
2022/01/15 10:45:21;;;;;;;78.03;31.77;;;;;;;;;;5071430;28;20334;-80
2022/01/15 10:47:49;;;;;;;221.73;96.53;;;;;;;;;;5080231;28;20292;-80
2022/01/15 10:50:21;;;;;;;87.50;32.57;;;;;;;;;;5091640;28;20679;-79
2022/01/15 10:52:48;;;;;;;72.90;27.23;;;;;;;;;;5101826;28;20199;-79
2022/01/15 10:55:16;;;;;;;77.20;28.30;;;;;;;;;;5097508;28;20289;-79
2022/01/15 10:57:45;;;;;;;71.97;27.53;;;;;;;;;;5091809;28;20597;-80
2022/01/15 11:00:15;;;;;;;79.77;36.73;;;;;;;;;;5092764;28;20288;-80
2022/01/15 11:02:43;;;;;;;58.97;26.17;;;;;;;;;;5092351;28;20200;-80
2022/01/15 11:05:31;;;;;;;55.27;23.93;;;;;;;;;;5088923;28;20241;-80
2022/01/15 11:08:13;;;;;;;57.77;23.73;;;;;;;;;;5077247;28;20591;-81
2022/01/15 11:10:43;;;;;;;56.27;24.10;;;;;;;;;;5089614;28;20207;-81
2022/01/15 11:13:12;;;;;;;61.07;24.87;;;;;;;;;;5091891;28;20204;-80
2022/01/15 11:15:39;;;;;;;60.83;25.83;;;;;;;;;;5095762;28;20290;-81
2022/01/15 11:18:07;;;;;;;54.03;23.60;;;;;;;;;;5092742;28;20305;-82
2022/01/15 11:20:35;;;;;;;57.53;23.90;;;;;;;;;;5088266;28;20272;-81
2022/01/15 11:23:03;;;;;;;49.23;21.93;;;;;;;;;;5092899;28;20209;-82
2022/01/15 11:25:30;;;;;;;47.80;22.13;;;;;;;;;;5093992;28;20300;-82
2022/01/15 11:27:59;;;;;;;53.73;24.83;;;;;;;;;;5102523;28;20227;-82
2022/01/15 11:30:27;;;;;;;58.90;22.87;;;;;;;;;;5099704;28;20209;-82
2022/01/15 11:32:55;;;;;;;53.63;22.50;;;;;;;;;;5096421;28;20233;-82
2022/01/15 11:35:37;;;;;;;51.03;23.27;;;;;;;;;;5096408;28;20638;-82
2022/01/15 11:38:04;;;;;;;48.40;20.67;;;;;;;;;;5095786;28;20229;-83
2022/01/15 11:40:35;;;;;;;78.33;40.27;;;;;;;;;;5096860;28;20724;-83
2022/01/15 11:43:17;;;;;;;53.03;28.25;;;;;;;;;;5096196;28;20492;-83
2022/01/15 11:45:46;;;;;;;43.20;21.10;;;;;;;;;;5080774;28;20252;-83
2022/01/15 11:48:24;;;;;;;52.23;21.53;;;;;;;;;;5094725;28;20300;-83
2022/01/15 11:51:06;;;;;;;45.27;20.83;;;;;;;;;;5095433;28;20254;-82
2022/01/15 11:53:45;;;;;;;47.13;21.37;;;;;;;;;;5098764;28;20280;-83
2022/01/15 11:56:16;;;;;;;45.57;21.33;;;;;;;;;;5095171;28;20225;-83
2022/01/15 11:58:44;;;;;;;46.23;22.03;;;;;;;;;;5094479;28;20779;-82
2022/01/15 12:01:37;;;;;;;44.73;22.50;;;;;;;;;;5095287;28;20610;-83
2022/01/15 12:04:23;;;;;;;83.80;41.60;;;;;;;;;;5094189;28;20633;-82
2022/01/15 12:07:09;;;;;;;46.73;21.13;;;;;;;;;;5093899;28;20285;-83
2022/01/15 12:09:37;;;;;;;43.80;20.00;;;;;;;;;;5079467;28;20200;-83
2022/01/15 12:12:30;;;;;;;45.07;21.03;;;;;;;;;;5109519;28;20219;-83
2022/01/15 12:15:00;;;;;;;42.87;20.77;;;;;;;;;;5101179;28;20610;-83
2022/01/15 12:17:30;;;;;;;40.97;20.57;;;;;;;;;;5094101;28;20700;-84
2022/01/15 12:19:58;;;;;;;39.57;19.83;;;;;;;;;;5100408;28;20222;-82
2022/01/15 12:22:35;;;;;;;46.50;20.57;;;;;;;;;;5096200;28;20225;-83
2022/01/15 12:25:02;;;;;;;42.50;20.80;;;;;;;;;;5095116;28;20207;-82
2022/01/15 12:27:30;;;;;;;46.17;22.47;;;;;;;;;;5089885;28;20199;-82
2022/01/15 12:30:02;;;;;;;43.77;21.13;;;;;;;;;;5091233;28;20209;-83
2022/01/15 12:32:32;;;;;;;41.70;20.33;;;;;;;;;;5093946;28;20199;-83
2022/01/15 12:35:01;;;;;;;38.30;20.13;;;;;;;;;;5089993;28;20242;-83
2022/01/15 12:37:28;;;;;;;36.93;19.73;;;;;;;;;;5093014;28;20230;-82
2022/01/15 12:39:56;;;;;;;39.07;20.87;;;;;;;;;;5099526;28;20220;-83
2022/01/15 12:42:30;;;;;;;38.93;19.70;;;;;;;;;;5092554;28;20191;-81
2022/01/15 12:44:58;;;;;;;42.07;20.87;;;;;;;;;;5099117;28;20233;-82
2022/01/15 12:47:25;;;;;;;41.47;20.47;;;;;;;;;;5094241;28;20246;-81
2022/01/15 12:49:55;;;;;;;38.93;20.43;;;;;;;;;;5096256;28;20281;-82
2022/01/15 12:52:24;;;;;;;50.43;26.77;;;;;;;;;;5093629;28;20574;-81
2022/01/15 12:54:52;;;;;;;48.00;24.70;;;;;;;;;;5094063;28;20602;-82
2022/01/15 12:57:41;;;;;;;44.17;21.50;;;;;;;;;;5093723;28;20309;-81
2022/01/15 13:00:09;;;;;;;46.00;22.20;;;;;;;;;;5093052;28;20309;-82
2022/01/15 13:02:36;;;;;;;46.40;22.17;;;;;;;;;;5093594;28;20278;-82
2022/01/15 13:05:06;;;;;;;39.93;21.20;;;;;;;;;;5099742;28;20195;-82
2022/01/15 13:07:53;;;;;;;45.43;21.93;;;;;;;;;;5092753;28;20629;-83
2022/01/15 13:10:34;;;;;;;46.37;22.20;;;;;;;;;;5093186;28;20234;-81
2022/01/15 13:13:02;;;;;;;45.93;22.10;;;;;;;;;;5093353;28;20206;-81
2022/01/15 13:15:30;;;;;;;51.43;23.33;;;;;;;;;;5092655;28;20366;-81
2022/01/15 13:17:58;;;;;;;42.53;21.23;;;;;;;;;;5092703;28;20654;-82
2022/01/15 13:20:27;;;;;;;43.33;21.40;;;;;;;;;;5093221;28;20209;-81
2022/01/15 13:22:55;;;;;;;43.20;21.23;;;;;;;;;;5093221;28;20289;-81
2022/01/15 13:25:23;;;;;;;48.53;22.97;;;;;;;;;;5093335;28;20809;-80
2022/01/15 13:27:51;;;;;;;39.80;20.73;;;;;;;;;;5093139;28;20278;-81
2022/01/15 13:30:20;;;;;;;41.87;21.83;;;;;;;;;;5093080;28;20617;-81
2022/01/15 13:32:58;;;;;;;42.07;22.50;;;;;;;;;;5093149;28;20285;-81
2022/01/15 13:35:29;;;;;;;37.80;21.33;;;;;;;;;;5092637;28;20275;-81
2022/01/15 13:37:58;;;;;;;40.13;20.63;;;;;;;;;;5092813;28;20290;-81
2022/01/15 13:40:30;;;;;;;43.23;21.53;;;;;;;;;;5093408;28;20291;-81
2022/01/15 13:42:57;;;;;;;48.70;23.27;;;;;;;;;;5092952;28;20233;-81
2022/01/15 13:45:25;;;;;;;39.93;21.97;;;;;;;;;;5092634;28;20261;-81
2022/01/15 13:47:52;;;;;;;42.43;21.40;;;;;;;;;;5092042;28;20231;-81
2022/01/15 13:53:12;;;;;;;44.53;22.03;;;;;;;;;;5091420;28;20199;-81
2022/01/15 13:55:39;;;;;;;44.17;22.00;;;;;;;;;;5092407;28;20305;-81
2022/01/15 13:58:11;;;;;;;41.07;21.93;;;;;;;;;;5104931;28;20275;-81
2022/01/15 14:00:38;;;;;;;37.50;20.27;;;;;;;;;;5104089;28;20229;-81
2022/01/15 14:03:07;;;;;;;38.43;21.27;;;;;;;;;;5112159;28;20198;-81
2022/01/15 14:05:36;;;;;;;37.13;20.53;;;;;;;;;;5107820;28;20287;-81
2022/01/15 14:08:10;;;;;;;35.27;19.93;;;;;;;;;;5092430;28;20292;-81
2022/01/15 14:10:39;;;;;;;38.73;20.03;;;;;;;;;;5092438;28;20207;-81
2022/01/15 14:13:07;;;;;;;38.00;20.50;;;;;;;;;;5092840;28;20230;-81
2022/01/15 14:15:35;;;;;;;41.93;20.80;;;;;;;;;;5092513;28;20727;-81
2022/01/15 14:18:08;;;;;;;39.90;21.47;;;;;;;;;;5092608;28;20293;-81
2022/01/15 14:20:51;;;;;;;41.70;23.10;;;;;;;;;;5092294;28;20408;-81
2022/01/15 14:23:28;;;;;;;43.47;23.20;;;;;;;;;;5092035;28;20685;-81
2022/01/15 14:25:55;;;;;;;40.03;21.47;;;;;;;;;;5092132;28;20198;-81
2022/01/15 14:28:23;;;;;;;39.93;20.93;;;;;;;;;;5087409;28;20231;-81
2022/01/15 14:30:54;;;;;;;43.17;21.57;;;;;;;;;;5091455;28;20212;-82
2022/01/15 14:33:22;;;;;;;39.37;21.13;;;;;;;;;;5104712;28;20292;-82
2022/01/15 14:35:50;;;;;;;42.37;21.77;;;;;;;;;;5091812;28;20237;-82
2022/01/15 14:38:18;;;;;;;47.10;26.20;;;;;;;;;;5091724;28;20289;-82
2022/01/15 14:40:45;;;;;;;46.83;25.37;;;;;;;;;;5091926;28;20229;-82